createdAt,value
2018-03-11T00:07:10.600Z,12.38
2018-03-11T00:17:10.602Z,12.42
2018-03-11T00:27:10.553Z,12.38
2018-03-11T00:37:10.615Z,12.44
2018-03-11T00:47:10.590Z,12.49
2018-03-11T00:57:10.643Z,12.45
2018-03-11T01:07:10.611Z,12.44
2018-03-11T01:17:10.556Z,12.33
2018-03-11T01:27:10.570Z,12.33
2018-03-11T01:37:10.606Z,12.06
2018-03-11T01:47:10.621Z,11.53
2018-03-11T01:57:10.536Z,10.96
2018-03-11T02:07:10.618Z,10.59
2018-03-11T02:17:10.591Z,10.17
2018-03-11T02:27:10.535Z,9.82
2018-03-11T02:37:10.606Z,9.73
2018-03-11T02:47:10.535Z,9.71
2018-03-11T02:57:10.617Z,9.63
2018-03-11T03:07:10.556Z,9.53
2018-03-11T03:17:10.520Z,9.21
2018-03-11T03:27:10.603Z,8.88
2018-03-11T03:37:10.534Z,8.79
2018-03-11T03:47:10.612Z,8.68
2018-03-11T03:57:10.576Z,8.65
2018-03-11T04:07:10.529Z,8.81
2018-03-11T04:17:10.631Z,8.9
2018-03-11T04:27:10.577Z,9.04
2018-03-11T04:37:10.532Z,9.05
2018-03-11T04:47:10.587Z,8.69
2018-03-11T04:57:10.571Z,8.68
2018-03-11T05:07:10.530Z,8.36
2018-03-11T05:17:10.582Z,8.25
2018-03-11T05:27:10.517Z,8.08
2018-03-11T05:37:10.583Z,8.51
2018-03-11T05:47:13.831Z,8.57
2018-03-11T05:57:10.551Z,8.58
2018-03-11T06:07:10.599Z,8.6
2018-03-11T06:17:10.521Z,8.75
2018-03-11T06:37:10.626Z,10.1
2018-03-11T06:47:13.749Z,10.21
2018-03-11T06:57:10.477Z,10.19
2018-03-11T07:07:10.584Z,10.59
2018-03-11T07:17:10.532Z,10.8
2018-03-11T07:27:10.559Z,11.24
2018-03-11T07:37:10.518Z,11.36
2018-03-11T07:47:10.600Z,11.59
2018-03-11T07:57:10.548Z,11.94
2018-03-11T08:07:10.506Z,12.13
2018-03-11T08:17:10.610Z,12.33
2018-03-11T08:27:10.490Z,12.6
2018-03-11T08:37:16.367Z,12.99
2018-03-11T08:47:10.562Z,13.37
2018-03-11T08:57:10.478Z,13.38
2018-03-11T09:17:17.886Z,13.55
2018-03-11T09:27:14.232Z,13.99
2018-03-11T09:37:10.621Z,14.74
2018-03-11T09:47:10.545Z,15.08
2018-03-11T09:57:10.501Z,15.19
2018-03-11T10:07:10.517Z,15.15
2018-03-11T10:17:10.501Z,15.19
2018-03-11T10:27:10.595Z,15.52
2018-03-11T10:37:10.582Z,15.89
2018-03-11T10:47:10.493Z,16.49
2018-03-11T10:57:10.571Z,16.99
2018-03-11T11:07:10.539Z,17.59
2018-03-11T11:17:10.600Z,17.89
2018-03-11T11:27:10.559Z,18.19
2018-03-11T11:37:10.472Z,18.03
2018-03-11T11:47:10.572Z,17.92
2018-03-11T11:57:10.558Z,18
2018-03-11T12:07:10.616Z,18.25
2018-03-11T12:17:10.601Z,18.21
2018-03-11T12:27:14.093Z,17.25
2018-03-11T12:37:14.555Z,17.13
2018-03-11T12:47:10.567Z,17.26
2018-03-11T12:57:14.187Z,17.3
2018-03-11T13:07:10.588Z,17.13
2018-03-11T13:17:13.874Z,17.08
2018-03-11T13:27:10.620Z,17.32
2018-03-11T13:37:13.779Z,17.54
2018-03-11T13:47:10.613Z,17.69
2018-03-11T13:57:10.591Z,17.79
2018-03-11T14:07:10.525Z,17.88
2018-03-11T14:17:10.486Z,17.79
2018-03-11T14:27:16.624Z,17.55
2018-03-11T14:37:10.621Z,17.3
2018-03-11T14:47:14.279Z,17
2018-03-11T14:57:13.712Z,16.67
2018-03-11T15:07:13.828Z,16.68
2018-03-11T15:17:10.578Z,16.81
2018-03-11T15:27:10.618Z,16.71
2018-03-11T15:37:10.642Z,16.73
2018-03-11T15:47:10.548Z,16.65
2018-03-11T15:57:10.609Z,16.41
2018-03-11T16:07:10.511Z,16.23
2018-03-11T16:17:10.557Z,16
2018-03-11T16:27:17.071Z,15.82
2018-03-11T16:37:10.611Z,15.42
2018-03-11T16:47:10.662Z,15.17
2018-03-11T16:57:10.581Z,14.68
2018-03-11T17:07:13.825Z,14.25
2018-03-11T17:17:10.625Z,13.98
2018-03-11T17:27:10.598Z,13.88
2018-03-11T17:37:10.646Z,13.67
2018-03-11T17:47:10.610Z,13.41
2018-03-11T17:57:14.026Z,13.21
2018-03-11T18:07:13.949Z,12.85
2018-03-11T18:27:10.666Z,12.23
2018-03-11T18:37:10.637Z,11.96
2018-03-11T18:47:10.560Z,11.65
2018-03-11T18:57:10.580Z,11.39
2018-03-11T19:07:10.576Z,11.07
2018-03-11T19:17:10.552Z,10.96
2018-03-11T19:27:10.820Z,10.74
2018-03-11T19:37:10.639Z,10.3
2018-03-11T19:47:10.548Z,10.14
2018-03-11T19:57:10.614Z,10.3
2018-03-11T20:07:10.577Z,10.01
2018-03-11T20:17:10.548Z,10.03
2018-03-11T20:27:10.554Z,10
2018-03-11T20:37:10.556Z,9.86
2018-03-11T20:47:10.620Z,9.85
2018-03-11T20:57:14.412Z,9.7
2018-03-11T21:07:14.392Z,9.66
2018-03-11T21:17:10.636Z,9.57
2018-03-11T21:27:10.543Z,9.58
2018-03-11T21:37:10.603Z,9.57
2018-03-11T21:47:10.628Z,9.61
2018-03-11T21:57:10.555Z,9.46
2018-03-11T22:07:14.893Z,9.38
2018-03-11T22:17:10.573Z,9.18
2018-03-11T22:27:10.511Z,8.9
2018-03-11T22:37:14.161Z,8.84
2018-03-11T22:47:10.563Z,8.57
2018-03-11T22:57:14.502Z,8.4
2018-03-11T23:07:10.608Z,8.2
2018-03-11T23:17:10.536Z,8.25
2018-03-11T23:27:10.558Z,8.07
2018-03-11T23:37:10.579Z,8.08
2018-03-11T23:47:14.012Z,7.94
2018-03-11T23:57:10.578Z,8.02
